sensor_id;sensor_type;location;lat;lon;timestamp;temperature;humidity
7958;DHT22;4024;52.172;5.378;2023-05-13T00:00:31;18.10;99.90
7958;DHT22;4024;52.172;5.378;2023-05-13T00:02:56;18.10;99.90
7958;DHT22;4024;52.172;5.378;2023-05-13T00:05:22;18.00;99.90
7958;DHT22;4024;52.172;5.378;2023-05-13T00:07:47;18.00;99.90
7958;DHT22;4024;52.172;5.378;2023-05-13T00:10:13;18.00;99.90
7958;DHT22;4024;52.172;5.378;2023-05-13T00:12:40;18.00;99.90
7958;DHT22;4024;52.172;5.378;2023-05-13T00:15:06;17.90;99.90
7958;DHT22;4024;52.172;5.378;2023-05-13T00:17:32;17.90;99.90
7958;DHT22;4024;52.172;5.378;2023-05-13T00:19:58;17.80;99.90
7958;DHT22;4024;52.172;5.378;2023-05-13T00:22:23;17.80;99.90
7958;DHT22;4024;52.172;5.378;2023-05-13T00:24:49;17.80;99.90
7958;DHT22;4024;52.172;5.378;2023-05-13T00:27:14;17.80;99.90
7958;DHT22;4024;52.172;5.378;2023-05-13T00:29:40;17.70;99.90
7958;DHT22;4024;52.172;5.378;2023-05-13T00:32:06;17.70;99.90
7958;DHT22;4024;52.172;5.378;2023-05-13T00:34:31;17.70;99.90
7958;DHT22;4024;52.172;5.378;2023-05-13T00:36:57;17.60;99.90
7958;DHT22;4024;52.172;5.378;2023-05-13T00:39:23;17.60;99.90
7958;DHT22;4024;52.172;5.378;2023-05-13T00:41:49;17.60;99.90
7958;DHT22;4024;52.172;5.378;2023-05-13T00:44:14;17.50;99.90
7958;DHT22;4024;52.172;5.378;2023-05-13T00:46:40;17.50;99.90
7958;DHT22;4024;52.172;5.378;2023-05-13T00:49:06;17.50;99.90
7958;DHT22;4024;52.172;5.378;2023-05-13T00:51:33;17.40;99.90
7958;DHT22;4024;52.172;5.378;2023-05-13T00:53:58;17.30;99.90
7958;DHT22;4024;52.172;5.378;2023-05-13T00:56:25;17.40;99.90
7958;DHT22;4024;52.172;5.378;2023-05-13T00:58:50;17.30;99.90
7958;DHT22;4024;52.172;5.378;2023-05-13T01:04:13;17.20;99.90
7958;DHT22;4024;52.172;5.378;2023-05-13T01:10:13;17.10;99.90
7958;DHT22;4024;52.172;5.378;2023-05-13T01:12:42;17.00;99.90
7958;DHT22;4024;52.172;5.378;2023-05-13T01:15:11;16.90;99.90
7958;DHT22;4024;52.172;5.378;2023-05-13T01:18:02;16.80;99.90
7958;DHT22;4024;52.172;5.378;2023-05-13T01:20:30;16.70;99.90
7958;DHT22;4024;52.172;5.378;2023-05-13T01:22:55;16.70;99.90
7958;DHT22;4024;52.172;5.378;2023-05-13T01:25:22;16.60;99.90
7958;DHT22;4024;52.172;5.378;2023-05-13T01:27:48;16.50;99.90
7958;DHT22;4024;52.172;5.378;2023-05-13T01:30:14;16.50;99.90
7958;DHT22;4024;52.172;5.378;2023-05-13T01:32:40;16.40;99.90
7958;DHT22;4024;52.172;5.378;2023-05-13T01:35:08;16.40;99.90
7958;DHT22;4024;52.172;5.378;2023-05-13T01:37:35;16.30;99.90
7958;DHT22;4024;52.172;5.378;2023-05-13T01:40:02;16.20;99.90
7958;DHT22;4024;52.172;5.378;2023-05-13T01:42:29;16.20;99.90
7958;DHT22;4024;52.172;5.378;2023-05-13T01:44:54;16.10;99.90
7958;DHT22;4024;52.172;5.378;2023-05-13T01:47:20;16.10;99.90
7958;DHT22;4024;52.172;5.378;2023-05-13T01:49:45;16.00;99.90
7958;DHT22;4024;52.172;5.378;2023-05-13T01:52:11;16.00;99.90
7958;DHT22;4024;52.172;5.378;2023-05-13T01:54:36;15.90;99.90
7958;DHT22;4024;52.172;5.378;2023-05-13T01:57:02;15.90;99.90
7958;DHT22;4024;52.172;5.378;2023-05-13T01:59:28;15.80;99.90
7958;DHT22;4024;52.172;5.378;2023-05-13T02:01:54;15.90;99.90
7958;DHT22;4024;52.172;5.378;2023-05-13T02:04:20;15.80;99.90
7958;DHT22;4024;52.172;5.378;2023-05-13T02:06:45;15.70;99.90
7958;DHT22;4024;52.172;5.378;2023-05-13T02:09:12;15.70;99.90
7958;DHT22;4024;52.172;5.378;2023-05-13T02:11:37;15.60;99.90
7958;DHT22;4024;52.172;5.378;2023-05-13T02:14:03;15.60;99.90
7958;DHT22;4024;52.172;5.378;2023-05-13T02:16:29;15.50;99.90
7958;DHT22;4024;52.172;5.378;2023-05-13T02:18:55;15.50;99.90
7958;DHT22;4024;52.172;5.378;2023-05-13T02:21:21;15.50;99.90
7958;DHT22;4024;52.172;5.378;2023-05-13T02:23:46;15.40;99.90
7958;DHT22;4024;52.172;5.378;2023-05-13T02:26:12;15.40;99.90
7958;DHT22;4024;52.172;5.378;2023-05-13T02:28:38;15.40;99.90
7958;DHT22;4024;52.172;5.378;2023-05-13T02:31:03;15.30;99.90
7958;DHT22;4024;52.172;5.378;2023-05-13T02:33:29;15.30;99.90
7958;DHT22;4024;52.172;5.378;2023-05-13T02:35:54;15.30;99.90
7958;DHT22;4024;52.172;5.378;2023-05-13T02:38:20;15.10;99.90
7958;DHT22;4024;52.172;5.378;2023-05-13T02:40:46;15.20;99.90
7958;DHT22;4024;52.172;5.378;2023-05-13T02:43:12;15.20;99.90
7958;DHT22;4024;52.172;5.378;2023-05-13T02:45:39;15.10;99.90
7958;DHT22;4024;52.172;5.378;2023-05-13T02:48:06;15.10;99.90
7958;DHT22;4024;52.172;5.378;2023-05-13T02:50:32;15.10;99.90
7958;DHT22;4024;52.172;5.378;2023-05-13T02:52:57;15.00;99.90
7958;DHT22;4024;52.172;5.378;2023-05-13T02:55:23;15.00;99.90
7958;DHT22;4024;52.172;5.378;2023-05-13T02:57:49;15.00;99.90
7958;DHT22;4024;52.172;5.378;2023-05-13T03:00:14;14.90;99.90
7958;DHT22;4024;52.172;5.378;2023-05-13T03:02:40;14.90;99.90
7958;DHT22;4024;52.172;5.378;2023-05-13T03:05:06;14.80;99.90
7958;DHT22;4024;52.172;5.378;2023-05-13T03:07:33;14.80;99.90
7958;DHT22;4024;52.172;5.378;2023-05-13T03:09:58;14.80;99.90
7958;DHT22;4024;52.172;5.378;2023-05-13T03:12:25;14.70;99.90
7958;DHT22;4024;52.172;5.378;2023-05-13T03:14:51;14.70;99.90
7958;DHT22;4024;52.172;5.378;2023-05-13T03:17:16;14.70;99.90
7958;DHT22;4024;52.172;5.378;2023-05-13T03:19:42;14.70;99.90
7958;DHT22;4024;52.172;5.378;2023-05-13T03:22:08;14.60;99.90
7958;DHT22;4024;52.172;5.378;2023-05-13T03:24:33;14.60;99.90
7958;DHT22;4024;52.172;5.378;2023-05-13T03:26:59;14.60;99.90
7958;DHT22;4024;52.172;5.378;2023-05-13T03:29:26;14.60;99.90
7958;DHT22;4024;52.172;5.378;2023-05-13T03:31:54;14.50;99.90
7958;DHT22;4024;52.172;5.378;2023-05-13T03:34:21;14.50;99.90
7958;DHT22;4024;52.172;5.378;2023-05-13T03:36:47;14.50;99.90
7958;DHT22;4024;52.172;5.378;2023-05-13T03:39:13;14.50;99.90
7958;DHT22;4024;52.172;5.378;2023-05-13T03:41:38;14.50;99.90
7958;DHT22;4024;52.172;5.378;2023-05-13T03:44:04;14.40;99.90
7958;DHT22;4024;52.172;5.378;2023-05-13T03:46:30;14.40;99.90
7958;DHT22;4024;52.172;5.378;2023-05-13T03:48:56;14.30;99.90
7958;DHT22;4024;52.172;5.378;2023-05-13T03:51:21;14.30;99.90
7958;DHT22;4024;52.172;5.378;2023-05-13T03:53:47;14.40;99.90
7958;DHT22;4024;52.172;5.378;2023-05-13T03:56:13;14.30;99.90
7958;DHT22;4024;52.172;5.378;2023-05-13T03:58:39;14.20;99.90
7958;DHT22;4024;52.172;5.378;2023-05-13T04:01:06;14.20;99.90
7958;DHT22;4024;52.172;5.378;2023-05-13T04:03:32;14.20;99.90
7958;DHT22;4024;52.172;5.378;2023-05-13T04:05:59;14.20;99.90
7958;DHT22;4024;52.172;5.378;2023-05-13T04:08:25;14.10;99.90
7958;DHT22;4024;52.172;5.378;2023-05-13T04:10:51;14.10;99.90
7958;DHT22;4024;52.172;5.378;2023-05-13T04:13:16;14.10;99.90
7958;DHT22;4024;52.172;5.378;2023-05-13T04:15:42;14.10;99.90
7958;DHT22;4024;52.172;5.378;2023-05-13T04:18:08;14.10;99.90
7958;DHT22;4024;52.172;5.378;2023-05-13T04:20:33;14.10;99.90
7958;DHT22;4024;52.172;5.378;2023-05-13T04:23:01;14.10;99.90
7958;DHT22;4024;52.172;5.378;2023-05-13T04:25:28;14.10;99.90
7958;DHT22;4024;52.172;5.378;2023-05-13T04:27:53;14.00;99.90
7958;DHT22;4024;52.172;5.378;2023-05-13T04:30:19;14.10;99.90
7958;DHT22;4024;52.172;5.378;2023-05-13T04:32:44;14.10;99.90
7958;DHT22;4024;52.172;5.378;2023-05-13T04:35:10;14.10;99.90
7958;DHT22;4024;52.172;5.378;2023-05-13T04:37:36;14.10;99.90
7958;DHT22;4024;52.172;5.378;2023-05-13T04:40:01;14.10;99.90
7958;DHT22;4024;52.172;5.378;2023-05-13T04:42:27;14.20;99.90
7958;DHT22;4024;52.172;5.378;2023-05-13T04:44:53;14.20;99.90
7958;DHT22;4024;52.172;5.378;2023-05-13T04:47:18;14.20;99.90
7958;DHT22;4024;52.172;5.378;2023-05-13T04:49:44;14.20;99.90
7958;DHT22;4024;52.172;5.378;2023-05-13T04:52:10;14.20;99.90
7958;DHT22;4024;52.172;5.378;2023-05-13T04:54:37;14.30;99.90
7958;DHT22;4024;52.172;5.378;2023-05-13T04:57:04;14.30;99.90
7958;DHT22;4024;52.172;5.378;2023-05-13T04:59:30;14.30;99.90
7958;DHT22;4024;52.172;5.378;2023-05-13T05:01:56;14.40;99.90
7958;DHT22;4024;52.172;5.378;2023-05-13T05:04:21;14.40;99.90
7958;DHT22;4024;52.172;5.378;2023-05-13T05:06:47;14.50;99.90
7958;DHT22;4024;52.172;5.378;2023-05-13T05:09:13;14.50;99.90
7958;DHT22;4024;52.172;5.378;2023-05-13T05:11:38;14.60;99.90
7958;DHT22;4024;52.172;5.378;2023-05-13T05:14:04;14.70;99.90
7958;DHT22;4024;52.172;5.378;2023-05-13T05:16:29;14.70;99.90
7958;DHT22;4024;52.172;5.378;2023-05-13T05:18:55;15.00;99.90
7958;DHT22;4024;52.172;5.378;2023-05-13T05:21:20;15.30;99.90
7958;DHT22;4024;52.172;5.378;2023-05-13T05:23:46;15.60;99.90
7958;DHT22;4024;52.172;5.378;2023-05-13T05:26:12;15.90;99.90
7958;DHT22;4024;52.172;5.378;2023-05-13T05:28:37;16.40;99.90
7958;DHT22;4024;52.172;5.378;2023-05-13T05:31:04;16.70;99.90
7958;DHT22;4024;52.172;5.378;2023-05-13T05:33:30;17.20;99.90
7958;DHT22;4024;52.172;5.378;2023-05-13T05:35:56;17.50;99.90
7958;DHT22;4024;52.172;5.378;2023-05-13T05:38:22;17.90;99.90
7958;DHT22;4024;52.172;5.378;2023-05-13T05:40:49;18.20;99.90
7958;DHT22;4024;52.172;5.378;2023-05-13T05:43:15;18.60;99.90
7958;DHT22;4024;52.172;5.378;2023-05-13T05:45:42;18.90;99.90
7958;DHT22;4024;52.172;5.378;2023-05-13T05:48:08;19.20;99.90
7958;DHT22;4024;52.172;5.378;2023-05-13T05:50:34;19.50;99.90
7958;DHT22;4024;52.172;5.378;2023-05-13T05:53:01;19.80;99.90
7958;DHT22;4024;52.172;5.378;2023-05-13T05:55:27;20.00;99.90
7958;DHT22;4024;52.172;5.378;2023-05-13T05:57:53;20.30;99.90
7958;DHT22;4024;52.172;5.378;2023-05-13T06:00:20;20.60;99.90
7958;DHT22;4024;52.172;5.378;2023-05-13T06:02:46;20.80;99.90
7958;DHT22;4024;52.172;5.378;2023-05-13T06:05:13;21.00;99.90
7958;DHT22;4024;52.172;5.378;2023-05-13T06:07:38;21.10;99.90
7958;DHT22;4024;52.172;5.378;2023-05-13T06:10:05;21.10;99.90
7958;DHT22;4024;52.172;5.378;2023-05-13T06:12:31;21.10;99.90
7958;DHT22;4024;52.172;5.378;2023-05-13T06:14:57;21.00;99.90
7958;DHT22;4024;52.172;5.378;2023-05-13T06:17:23;20.90;99.90
7958;DHT22;4024;52.172;5.378;2023-05-13T06:19:49;20.80;99.90
7958;DHT22;4024;52.172;5.378;2023-05-13T06:22:14;20.60;99.90
7958;DHT22;4024;52.172;5.378;2023-05-13T06:24:40;20.50;99.90
7958;DHT22;4024;52.172;5.378;2023-05-13T06:27:09;20.30;99.90
7958;DHT22;4024;52.172;5.378;2023-05-13T06:29:35;20.10;99.90
7958;DHT22;4024;52.172;5.378;2023-05-13T06:32:01;19.90;99.90
7958;DHT22;4024;52.172;5.378;2023-05-13T06:34:26;19.60;99.90
7958;DHT22;4024;52.172;5.378;2023-05-13T06:36:52;19.50;99.90
7958;DHT22;4024;52.172;5.378;2023-05-13T06:39:18;19.40;99.90
7958;DHT22;4024;52.172;5.378;2023-05-13T06:41:43;19.30;99.90
7958;DHT22;4024;52.172;5.378;2023-05-13T06:44:09;19.10;99.90
7958;DHT22;4024;52.172;5.378;2023-05-13T06:46:35;18.90;99.90
7958;DHT22;4024;52.172;5.378;2023-05-13T06:49:00;18.80;99.90
7958;DHT22;4024;52.172;5.378;2023-05-13T06:51:26;18.70;99.90
7958;DHT22;4024;52.172;5.378;2023-05-13T06:53:53;18.60;99.90
7958;DHT22;4024;52.172;5.378;2023-05-13T06:56:19;18.50;99.90
7958;DHT22;4024;52.172;5.378;2023-05-13T06:58:47;18.50;99.90
7958;DHT22;4024;52.172;5.378;2023-05-13T07:01:14;18.40;99.90
7958;DHT22;4024;52.172;5.378;2023-05-13T07:03:40;18.40;99.90
7958;DHT22;4024;52.172;5.378;2023-05-13T07:06:05;18.40;99.90
7958;DHT22;4024;52.172;5.378;2023-05-13T07:08:31;18.30;99.90
7958;DHT22;4024;52.172;5.378;2023-05-13T07:10:57;18.30;99.90
7958;DHT22;4024;52.172;5.378;2023-05-13T07:13:22;18.30;99.90
7958;DHT22;4024;52.172;5.378;2023-05-13T07:15:49;18.30;99.90
7958;DHT22;4024;52.172;5.378;2023-05-13T07:18:14;18.30;99.90
7958;DHT22;4024;52.172;5.378;2023-05-13T07:20:40;18.30;99.90
7958;DHT22;4024;52.172;5.378;2023-05-13T07:23:05;18.30;99.90
7958;DHT22;4024;52.172;5.378;2023-05-13T07:25:31;18.40;99.90
7958;DHT22;4024;52.172;5.378;2023-05-13T07:27:57;18.30;99.90
7958;DHT22;4024;52.172;5.378;2023-05-13T07:30:22;18.40;99.90
7958;DHT22;4024;52.172;5.378;2023-05-13T07:32:48;18.50;99.90
7958;DHT22;4024;52.172;5.378;2023-05-13T07:35:14;18.50;99.90
7958;DHT22;4024;52.172;5.378;2023-05-13T07:37:41;18.50;99.90
7958;DHT22;4024;52.172;5.378;2023-05-13T07:40:07;18.50;99.90
7958;DHT22;4024;52.172;5.378;2023-05-13T07:42:33;18.60;99.90
7958;DHT22;4024;52.172;5.378;2023-05-13T07:44:59;18.60;99.90
7958;DHT22;4024;52.172;5.378;2023-05-13T07:47:24;18.60;99.90
7958;DHT22;4024;52.172;5.378;2023-05-13T07:49:52;18.70;99.90
7958;DHT22;4024;52.172;5.378;2023-05-13T07:52:18;18.70;99.90
7958;DHT22;4024;52.172;5.378;2023-05-13T07:54:44;18.70;99.90
7958;DHT22;4024;52.172;5.378;2023-05-13T07:57:10;18.80;99.90
7958;DHT22;4024;52.172;5.378;2023-05-13T07:59:35;18.80;99.90
7958;DHT22;4024;52.172;5.378;2023-05-13T08:02:03;18.80;99.90
7958;DHT22;4024;52.172;5.378;2023-05-13T08:04:29;18.90;99.90
7958;DHT22;4024;52.172;5.378;2023-05-13T08:06:54;18.90;99.90
7958;DHT22;4024;52.172;5.378;2023-05-13T08:09:21;18.90;99.90
7958;DHT22;4024;52.172;5.378;2023-05-13T08:11:47;18.90;99.90
7958;DHT22;4024;52.172;5.378;2023-05-13T08:14:12;19.00;99.90
7958;DHT22;4024;52.172;5.378;2023-05-13T08:16:38;19.10;99.90
7958;DHT22;4024;52.172;5.378;2023-05-13T08:19:03;19.00;99.90
7958;DHT22;4024;52.172;5.378;2023-05-13T08:21:29;19.00;99.90
7958;DHT22;4024;52.172;5.378;2023-05-13T08:23:56;19.10;99.90
7958;DHT22;4024;52.172;5.378;2023-05-13T08:26:21;19.10;99.90
7958;DHT22;4024;52.172;5.378;2023-05-13T08:28:47;19.20;99.90
7958;DHT22;4024;52.172;5.378;2023-05-13T08:31:13;19.20;99.90
7958;DHT22;4024;52.172;5.378;2023-05-13T08:33:39;19.30;99.90
7958;DHT22;4024;52.172;5.378;2023-05-13T08:36:10;19.30;99.90
7958;DHT22;4024;52.172;5.378;2023-05-13T08:38:36;19.30;99.90
7958;DHT22;4024;52.172;5.378;2023-05-13T08:41:04;19.40;99.90
7958;DHT22;4024;52.172;5.378;2023-05-13T08:43:31;19.50;99.90
7958;DHT22;4024;52.172;5.378;2023-05-13T08:46:01;19.50;99.90
7958;DHT22;4024;52.172;5.378;2023-05-13T08:48:28;19.50;99.90
7958;DHT22;4024;52.172;5.378;2023-05-13T08:50:54;19.60;99.90
7958;DHT22;4024;52.172;5.378;2023-05-13T08:53:21;19.60;99.90
7958;DHT22;4024;52.172;5.378;2023-05-13T08:55:50;19.70;99.90
7958;DHT22;4024;52.172;5.378;2023-05-13T08:58:16;19.70;99.90
7958;DHT22;4024;52.172;5.378;2023-05-13T09:00:42;19.80;99.90
7958;DHT22;4024;52.172;5.378;2023-05-13T09:03:07;19.80;99.90
7958;DHT22;4024;52.172;5.378;2023-05-13T09:05:34;19.90;99.90
7958;DHT22;4024;52.172;5.378;2023-05-13T09:08:07;19.90;99.90
7958;DHT22;4024;52.172;5.378;2023-05-13T09:10:33;20.00;99.90
7958;DHT22;4024;52.172;5.378;2023-05-13T09:12:59;20.00;99.90
7958;DHT22;4024;52.172;5.378;2023-05-13T09:15:27;20.10;99.90
7958;DHT22;4024;52.172;5.378;2023-05-13T09:17:54;20.10;99.90
7958;DHT22;4024;52.172;5.378;2023-05-13T09:20:21;20.20;99.90
7958;DHT22;4024;52.172;5.378;2023-05-13T09:25:17;20.30;99.90
7958;DHT22;4024;52.172;5.378;2023-05-13T09:27:49;20.40;99.90
7958;DHT22;4024;52.172;5.378;2023-05-13T09:30:15;20.50;99.90
7958;DHT22;4024;52.172;5.378;2023-05-13T09:32:41;20.70;99.90
7958;DHT22;4024;52.172;5.378;2023-05-13T09:35:16;20.80;99.90
7958;DHT22;4024;52.172;5.378;2023-05-13T09:37:47;20.90;99.90
7958;DHT22;4024;52.172;5.378;2023-05-13T09:40:15;21.00;99.90
7958;DHT22;4024;52.172;5.378;2023-05-13T09:42:45;21.10;99.90
7958;DHT22;4024;52.172;5.378;2023-05-13T09:45:12;21.30;99.90
7958;DHT22;4024;52.172;5.378;2023-05-13T09:47:38;21.50;99.90
7958;DHT22;4024;52.172;5.378;2023-05-13T09:50:04;21.60;99.90
7958;DHT22;4024;52.172;5.378;2023-05-13T09:52:31;21.80;99.90
7958;DHT22;4024;52.172;5.378;2023-05-13T09:54:57;21.90;99.90
7958;DHT22;4024;52.172;5.378;2023-05-13T09:57:25;22.10;99.90
7958;DHT22;4024;52.172;5.378;2023-05-13T09:59:51;22.20;99.90
7958;DHT22;4024;52.172;5.378;2023-05-13T10:02:20;22.40;99.90
7958;DHT22;4024;52.172;5.378;2023-05-13T10:04:46;22.50;99.90
7958;DHT22;4024;52.172;5.378;2023-05-13T10:07:12;22.70;99.90
7958;DHT22;4024;52.172;5.378;2023-05-13T10:09:38;22.80;99.90
7958;DHT22;4024;52.172;5.378;2023-05-13T10:12:06;22.80;99.90
7958;DHT22;4024;52.172;5.378;2023-05-13T10:14:37;22.90;99.90
7958;DHT22;4024;52.172;5.378;2023-05-13T10:17:03;23.00;99.90
7958;DHT22;4024;52.172;5.378;2023-05-13T10:19:29;23.10;99.90
7958;DHT22;4024;52.172;5.378;2023-05-13T10:21:55;23.20;99.90
7958;DHT22;4024;52.172;5.378;2023-05-13T10:24:22;23.20;99.90
7958;DHT22;4024;52.172;5.378;2023-05-13T10:26:51;23.30;99.90
7958;DHT22;4024;52.172;5.378;2023-05-13T10:29:17;23.30;99.90
7958;DHT22;4024;52.172;5.378;2023-05-13T10:31:44;23.40;99.90
7958;DHT22;4024;52.172;5.378;2023-05-13T10:34:11;23.30;99.90
7958;DHT22;4024;52.172;5.378;2023-05-13T10:42:20;23.30;99.90
7958;DHT22;4024;52.172;5.378;2023-05-13T10:44:57;23.30;99.90
7958;DHT22;4024;52.172;5.378;2023-05-13T10:47:22;23.30;99.90
7958;DHT22;4024;52.172;5.378;2023-05-13T10:49:51;23.20;99.90
7958;DHT22;4024;52.172;5.378;2023-05-13T10:52:18;23.30;99.90
7958;DHT22;4024;52.172;5.378;2023-05-13T10:54:58;23.20;99.90
7958;DHT22;4024;52.172;5.378;2023-05-13T10:57:34;23.20;99.90
7958;DHT22;4024;52.172;5.378;2023-05-13T11:00:28;23.20;99.90
7958;DHT22;4024;52.172;5.378;2023-05-13T11:02:54;23.20;99.90
7958;DHT22;4024;52.172;5.378;2023-05-13T11:05:20;23.20;99.90
7958;DHT22;4024;52.172;5.378;2023-05-13T11:07:56;23.20;99.90
7958;DHT22;4024;52.172;5.378;2023-05-13T11:10:26;23.10;99.90
7958;DHT22;4024;52.172;5.378;2023-05-13T11:15:48;23.20;99.90
7958;DHT22;4024;52.172;5.378;2023-05-13T11:18:14;23.30;99.90
7958;DHT22;4024;52.172;5.378;2023-05-13T11:20:43;23.30;99.90
7958;DHT22;4024;52.172;5.378;2023-05-13T11:23:16;23.20;99.90
7958;DHT22;4024;52.172;5.378;2023-05-13T11:25:43;23.20;99.90
7958;DHT22;4024;52.172;5.378;2023-05-13T11:28:16;23.30;99.90
7958;DHT22;4024;52.172;5.378;2023-05-13T11:30:52;23.30;99.90
7958;DHT22;4024;52.172;5.378;2023-05-13T11:33:19;23.30;99.90
7958;DHT22;4024;52.172;5.378;2023-05-13T11:35:53;23.40;99.90
7958;DHT22;4024;52.172;5.378;2023-05-13T11:38:23;23.40;99.90
7958;DHT22;4024;52.172;5.378;2023-05-13T11:40:49;23.50;99.90
7958;DHT22;4024;52.172;5.378;2023-05-13T11:43:19;23.60;99.90
7958;DHT22;4024;52.172;5.378;2023-05-13T11:45:48;23.60;99.90
7958;DHT22;4024;52.172;5.378;2023-05-13T11:48:21;23.60;99.90
7958;DHT22;4024;52.172;5.378;2023-05-13T11:50:49;23.60;99.90
7958;DHT22;4024;52.172;5.378;2023-05-13T11:53:21;23.80;99.90
7958;DHT22;4024;52.172;5.378;2023-05-13T11:55:47;23.80;99.90
7958;DHT22;4024;52.172;5.378;2023-05-13T11:58:13;23.80;99.90
7958;DHT22;4024;52.172;5.378;2023-05-13T12:00:40;23.80;99.90
7958;DHT22;4024;52.172;5.378;2023-05-13T12:03:10;23.90;99.90
7958;DHT22;4024;52.172;5.378;2023-05-13T12:05:40;23.90;99.90
7958;DHT22;4024;52.172;5.378;2023-05-13T12:08:08;23.90;99.90
7958;DHT22;4024;52.172;5.378;2023-05-13T12:10:34;24.00;99.90
7958;DHT22;4024;52.172;5.378;2023-05-13T12:13:06;24.10;99.90
7958;DHT22;4024;52.172;5.378;2023-05-13T12:15:32;24.10;99.90
7958;DHT22;4024;52.172;5.378;2023-05-13T12:17:58;24.20;99.90
7958;DHT22;4024;52.172;5.378;2023-05-13T12:20:24;24.20;99.90
7958;DHT22;4024;52.172;5.378;2023-05-13T12:22:50;24.20;99.90
7958;DHT22;4024;52.172;5.378;2023-05-13T12:28:18;24.30;99.20
7958;DHT22;4024;52.172;5.378;2023-05-13T12:30:57;24.30;99.60
7958;DHT22;4024;52.172;5.378;2023-05-13T12:33:25;24.40;96.70
7958;DHT22;4024;52.172;5.378;2023-05-13T12:35:53;24.40;96.10
7958;DHT22;4024;52.172;5.378;2023-05-13T12:38:21;24.50;95.40
7958;DHT22;4024;52.172;5.378;2023-05-13T12:40:48;24.50;94.30
7958;DHT22;4024;52.172;5.378;2023-05-13T12:43:16;24.50;93.40
7958;DHT22;4024;52.172;5.378;2023-05-13T12:45:44;24.50;94.10
7958;DHT22;4024;52.172;5.378;2023-05-13T12:48:10;24.60;94.40
7958;DHT22;4024;52.172;5.378;2023-05-13T12:50:36;24.60;95.00
7958;DHT22;4024;52.172;5.378;2023-05-13T12:53:02;24.60;96.00
7958;DHT22;4024;52.172;5.378;2023-05-13T12:55:28;24.70;95.80
7958;DHT22;4024;52.172;5.378;2023-05-13T12:57:59;24.70;93.10
7958;DHT22;4024;52.172;5.378;2023-05-13T13:00:26;24.70;93.50
7958;DHT22;4024;52.172;5.378;2023-05-13T13:02:52;24.80;92.50
7958;DHT22;4024;52.172;5.378;2023-05-13T13:05:19;24.70;93.00
7958;DHT22;4024;52.172;5.378;2023-05-13T13:07:45;24.80;95.10
7958;DHT22;4024;52.172;5.378;2023-05-13T13:10:11;24.80;95.00
7958;DHT22;4024;52.172;5.378;2023-05-13T13:12:37;24.90;95.00
7958;DHT22;4024;52.172;5.378;2023-05-13T13:15:04;25.00;95.70
7958;DHT22;4024;52.172;5.378;2023-05-13T13:17:29;25.00;94.20
7958;DHT22;4024;52.172;5.378;2023-05-13T13:19:55;25.00;94.60
7958;DHT22;4024;52.172;5.378;2023-05-13T13:22:20;25.10;94.20
7958;DHT22;4024;52.172;5.378;2023-05-13T13:24:46;25.10;92.90
7958;DHT22;4024;52.172;5.378;2023-05-13T13:27:12;25.10;92.50
7958;DHT22;4024;52.172;5.378;2023-05-13T13:29:37;25.20;94.20
7958;DHT22;4024;52.172;5.378;2023-05-13T13:32:03;25.20;93.50
7958;DHT22;4024;52.172;5.378;2023-05-13T13:34:29;25.30;91.90
7958;DHT22;4024;52.172;5.378;2023-05-13T13:36:54;25.30;93.60
7958;DHT22;4024;52.172;5.378;2023-05-13T13:39:20;25.30;93.10
7958;DHT22;4024;52.172;5.378;2023-05-13T13:41:45;25.40;92.00
7958;DHT22;4024;52.172;5.378;2023-05-13T13:44:12;25.40;91.20
7958;DHT22;4024;52.172;5.378;2023-05-13T13:46:38;25.50;89.90
7958;DHT22;4024;52.172;5.378;2023-05-13T13:49:04;25.50;89.10
7958;DHT22;4024;52.172;5.378;2023-05-13T13:51:29;25.50;89.20
7958;DHT22;4024;52.172;5.378;2023-05-13T13:53:55;25.50;89.60
7958;DHT22;4024;52.172;5.378;2023-05-13T13:56:21;25.60;90.40
7958;DHT22;4024;52.172;5.378;2023-05-13T13:58:46;25.60;87.30
7958;DHT22;4024;52.172;5.378;2023-05-13T14:01:12;25.60;86.00
7958;DHT22;4024;52.172;5.378;2023-05-13T14:03:39;25.60;82.50
7958;DHT22;4024;52.172;5.378;2023-05-13T14:06:05;25.60;84.30
7958;DHT22;4024;52.172;5.378;2023-05-13T14:08:31;25.70;86.50
7958;DHT22;4024;52.172;5.378;2023-05-13T14:10:56;25.70;81.90
7958;DHT22;4024;52.172;5.378;2023-05-13T14:13:22;25.70;79.70
7958;DHT22;4024;52.172;5.378;2023-05-13T14:15:47;25.70;80.70
7958;DHT22;4024;52.172;5.378;2023-05-13T14:18:13;25.70;84.40
7958;DHT22;4024;52.172;5.378;2023-05-13T14:20:39;25.70;84.40
7958;DHT22;4024;52.172;5.378;2023-05-13T14:23:04;25.70;79.30
7958;DHT22;4024;52.172;5.378;2023-05-13T14:25:30;25.70;80.40
7958;DHT22;4024;52.172;5.378;2023-05-13T14:27:56;25.70;78.60
7958;DHT22;4024;52.172;5.378;2023-05-13T14:30:21;25.70;77.20
7958;DHT22;4024;52.172;5.378;2023-05-13T14:32:47;25.70;80.20
7958;DHT22;4024;52.172;5.378;2023-05-13T14:35:13;25.70;81.40
7958;DHT22;4024;52.172;5.378;2023-05-13T14:37:39;25.80;81.00
7958;DHT22;4024;52.172;5.378;2023-05-13T14:40:05;25.80;78.40
7958;DHT22;4024;52.172;5.378;2023-05-13T14:42:31;25.70;78.00
7958;DHT22;4024;52.172;5.378;2023-05-13T14:44:56;25.80;78.90
7958;DHT22;4024;52.172;5.378;2023-05-13T14:47:22;25.80;74.70
7958;DHT22;4024;52.172;5.378;2023-05-13T14:49:48;25.80;76.30
7958;DHT22;4024;52.172;5.378;2023-05-13T14:52:14;25.80;76.60
7958;DHT22;4024;52.172;5.378;2023-05-13T14:54:40;25.80;77.40
7958;DHT22;4024;52.172;5.378;2023-05-13T14:57:05;25.80;78.70
7958;DHT22;4024;52.172;5.378;2023-05-13T14:59:32;25.80;79.60
7958;DHT22;4024;52.172;5.378;2023-05-13T15:01:57;25.80;90.30
7958;DHT22;4024;52.172;5.378;2023-05-13T15:04:23;25.80;95.10
7958;DHT22;4024;52.172;5.378;2023-05-13T15:06:49;25.80;96.50
7958;DHT22;4024;52.172;5.378;2023-05-13T15:09:15;25.70;98.60
7958;DHT22;4024;52.172;5.378;2023-05-13T15:11:40;25.60;99.90
7958;DHT22;4024;52.172;5.378;2023-05-13T15:14:07;25.60;99.90
7958;DHT22;4024;52.172;5.378;2023-05-13T15:16:33;25.60;98.70
7958;DHT22;4024;52.172;5.378;2023-05-13T15:18:59;25.50;98.50
7958;DHT22;4024;52.172;5.378;2023-05-13T15:21:26;25.50;98.60
7958;DHT22;4024;52.172;5.378;2023-05-13T15:23:51;25.50;99.90
7958;DHT22;4024;52.172;5.378;2023-05-13T15:26:17;25.40;99.90
7958;DHT22;4024;52.172;5.378;2023-05-13T15:28:43;25.50;99.90
7958;DHT22;4024;52.172;5.378;2023-05-13T15:31:09;25.40;99.90
7958;DHT22;4024;52.172;5.378;2023-05-13T15:33:34;25.40;99.90
7958;DHT22;4024;52.172;5.378;2023-05-13T15:36:00;25.40;99.90
7958;DHT22;4024;52.172;5.378;2023-05-13T15:38:26;25.30;99.90
7958;DHT22;4024;52.172;5.378;2023-05-13T15:40:52;25.40;99.90
7958;DHT22;4024;52.172;5.378;2023-05-13T15:43:17;25.40;99.70
7958;DHT22;4024;52.172;5.378;2023-05-13T15:45:43;25.30;99.90
7958;DHT22;4024;52.172;5.378;2023-05-13T15:48:09;25.30;99.90
7958;DHT22;4024;52.172;5.378;2023-05-13T15:50:34;25.30;99.90
7958;DHT22;4024;52.172;5.378;2023-05-13T15:53:00;25.30;99.90
7958;DHT22;4024;52.172;5.378;2023-05-13T15:55:26;25.40;99.90
7958;DHT22;4024;52.172;5.378;2023-05-13T15:57:51;25.30;99.90
7958;DHT22;4024;52.172;5.378;2023-05-13T16:00:18;25.40;99.90
7958;DHT22;4024;52.172;5.378;2023-05-13T16:02:44;25.30;99.90
7958;DHT22;4024;52.172;5.378;2023-05-13T16:05:10;25.30;99.90
7958;DHT22;4024;52.172;5.378;2023-05-13T16:07:36;25.30;99.90
7958;DHT22;4024;52.172;5.378;2023-05-13T16:10:03;25.30;99.90
7958;DHT22;4024;52.172;5.378;2023-05-13T16:12:30;25.30;99.90
7958;DHT22;4024;52.172;5.378;2023-05-13T16:14:55;25.20;99.90
7958;DHT22;4024;52.172;5.378;2023-05-13T16:17:21;25.30;99.90